createdAt,value
2018-01-13T08:40:13.772Z,12.23
2018-01-13T08:42:41.873Z,11.00
2018-01-13T08:45:10.067Z,11.68
2018-01-13T08:47:38.272Z,13.95
2018-01-13T08:50:06.472Z,12.52
2018-01-13T08:52:34.861Z,14.00
2018-01-13T08:55:03.040Z,17.15
2018-01-13T08:57:31.236Z,12.95
2018-01-13T09:00:03.236Z,10.60
2018-01-13T09:02:31.321Z,11.23
2018-01-13T09:07:34.563Z,13.75
2018-01-13T09:10:04.801Z,13.07
2018-01-13T09:12:32.994Z,13.55
2018-01-13T09:15:03.435Z,14.45
2018-01-13T09:17:31.525Z,12.77
2018-01-13T09:20:00.954Z,14.68
2018-01-13T09:22:29.141Z,12.05
2018-01-13T09:24:57.352Z,11.68
2018-01-13T09:27:25.434Z,13.13
2018-01-13T09:29:54.848Z,10.68
2018-01-13T09:32:23.054Z,12.65
2018-01-13T09:34:51.174Z,11.80
2018-01-13T09:37:19.237Z,11.73
2018-01-13T09:39:47.315Z,13.73
2018-01-13T09:42:15.727Z,13.30
2018-01-13T09:44:43.817Z,11.90
2018-01-13T09:47:11.916Z,11.43
2018-01-13T09:49:40.199Z,10.63
2018-01-13T09:52:08.495Z,12.95
2018-01-13T09:54:36.689Z,16.73
2018-01-13T09:57:04.882Z,11.90
2018-01-13T09:59:33.086Z,14.23
2018-01-13T10:02:01.275Z,14.50
2018-01-13T10:04:30.090Z,14.18
2018-01-13T10:06:59.469Z,14.27
2018-01-13T10:09:27.603Z,11.27
2018-01-13T10:11:57.829Z,13.45
2018-01-13T10:14:25.929Z,14.80
2018-01-13T10:16:54.021Z,16.15
2018-01-13T10:19:22.150Z,16.75
2018-01-13T10:21:50.158Z,14.38
2018-01-13T10:24:18.360Z,18.02
2018-01-13T10:26:46.570Z,17.73
2018-01-13T10:29:14.699Z,12.95
2018-01-13T10:31:42.836Z,14.43
2018-01-13T10:34:10.975Z,15.25
2018-01-13T10:36:39.228Z,17.80
2018-01-13T10:39:07.256Z,14.90
2018-01-13T10:41:35.320Z,12.80
2018-01-13T10:44:03.362Z,19.50
2018-01-13T10:46:31.410Z,16.77
2018-01-13T10:48:59.438Z,15.50
2018-01-13T10:51:27.473Z,16.75
2018-01-13T10:53:55.406Z,16.95
2018-01-13T10:56:23.498Z,14.07
2018-01-13T10:58:51.502Z,16.08
2018-01-13T11:01:19.658Z,21.10
2018-01-13T11:03:47.772Z,15.90
2018-01-13T11:06:20.286Z,16.27
2018-01-13T11:08:48.282Z,17.98
2018-01-13T11:11:22.487Z,21.30
2018-01-13T11:13:50.567Z,19.20
2018-01-13T11:16:22.359Z,20.10
2018-01-13T11:18:50.423Z,19.73
2018-01-13T11:21:19.760Z,15.82
2018-01-13T11:23:47.841Z,21.02
2018-01-13T11:26:16.160Z,17.70
2018-01-13T11:28:44.344Z,16.83
2018-01-13T11:31:12.350Z,25.10
2018-01-13T11:33:40.623Z,19.12
2018-01-13T11:36:12.404Z,21.42
2018-01-13T11:38:40.485Z,17.80
2018-01-13T11:41:12.477Z,26.80
2018-01-13T11:43:40.565Z,22.15
2018-01-13T11:46:10.999Z,18.42
2018-01-13T11:48:39.096Z,21.02
2018-01-13T11:51:10.376Z,20.80
2018-01-13T11:53:38.665Z,20.88
2018-01-13T11:56:06.863Z,21.12
2018-01-13T11:58:34.945Z,21.95
2018-01-13T12:01:03.140Z,19.83
2018-01-13T12:03:31.539Z,22.37
2018-01-13T12:06:03.721Z,18.83
2018-01-13T12:08:31.819Z,20.00
2018-01-13T12:11:00.041Z,21.25
2018-01-13T12:13:28.299Z,23.75
2018-01-13T12:21:07.125Z,13.50
2018-01-13T12:23:35.405Z,16.50
2018-01-13T12:26:03.600Z,15.20
2018-01-13T12:28:31.787Z,18.80
2018-01-13T12:30:59.983Z,19.80
2018-01-13T12:33:28.185Z,15.50
2018-01-13T12:35:56.260Z,13.32
2018-01-13T12:38:24.561Z,11.48
2018-01-13T12:40:52.765Z,10.65
2018-01-13T12:43:21.057Z,12.77
2018-01-13T12:45:49.367Z,16.02
2018-01-13T12:48:17.658Z,16.40
2018-01-13T12:50:45.955Z,15.05
2018-01-13T12:53:14.346Z,15.77
2018-01-13T12:55:42.641Z,11.40
2018-01-13T12:58:10.844Z,13.62
2018-01-13T13:00:39.026Z,13.52
2018-01-13T13:03:07.125Z,14.80
2018-01-13T13:05:35.211Z,13.07
2018-01-13T13:08:03.412Z,15.40
2018-01-13T13:10:31.600Z,14.00
2018-01-13T13:12:59.793Z,9.80
2018-01-13T13:15:27.988Z,11.23
2018-01-13T13:17:57.405Z,12.02
2018-01-13T13:20:25.703Z,12.05
2018-01-13T13:22:54.015Z,11.60
2018-01-13T13:25:22.199Z,13.02
2018-01-13T13:27:50.496Z,9.07
2018-01-13T13:30:18.692Z,7.75
2018-01-13T13:32:46.981Z,10.65
2018-01-13T13:35:15.209Z,14.50
2018-01-13T13:37:43.483Z,12.80
2018-01-13T13:40:11.681Z,10.85
2018-01-13T13:42:39.739Z,16.05
2018-01-13T13:45:07.865Z,12.30
2018-01-13T13:47:36.047Z,11.82
2018-01-13T13:50:04.245Z,9.75
2018-01-13T13:52:32.354Z,13.43
2018-01-13T13:55:00.742Z,8.77
2018-01-13T13:57:28.931Z,8.55
2018-01-13T13:59:57.153Z,11.77
2018-01-13T14:02:25.336Z,10.18
2018-01-13T14:04:53.727Z,10.75
2018-01-13T14:07:21.924Z,8.18
2018-01-13T14:09:50.010Z,7.65
2018-01-13T14:12:18.099Z,10.20
2018-01-13T14:14:46.412Z,11.77
2018-01-13T14:17:14.586Z,11.00
2018-01-13T14:19:42.784Z,9.38
2018-01-13T14:22:10.888Z,9.85
2018-01-13T14:24:39.066Z,9.52
2018-01-13T14:27:07.272Z,19.40
2018-01-13T14:29:35.357Z,12.50
2018-01-13T14:32:03.445Z,20.95
2018-01-13T14:34:31.752Z,15.00
2018-01-13T14:36:59.842Z,15.43
2018-01-13T14:39:28.144Z,12.82
2018-01-13T14:41:56.237Z,14.30
2018-01-13T14:44:24.330Z,12.00
2018-01-13T14:46:52.721Z,13.20
2018-01-13T14:49:21.117Z,15.88
2018-01-13T14:51:49.114Z,14.82
2018-01-13T14:54:17.316Z,13.13
2018-01-13T14:56:45.718Z,14.85
2018-01-13T14:59:14.013Z,16.55
2018-01-13T15:01:42.084Z,18.98
2018-01-13T15:04:10.298Z,14.63
2018-01-13T15:06:38.380Z,12.18
2018-01-13T15:09:06.505Z,10.98
2018-01-13T15:11:35.596Z,10.25
2018-01-13T15:14:04.098Z,11.95
2018-01-13T15:16:32.384Z,11.52
2018-01-13T15:19:00.682Z,9.65
2018-01-13T15:21:28.989Z,8.55
2018-01-13T15:23:57.268Z,8.73
2018-01-13T15:26:25.564Z,9.73
2018-01-13T15:28:53.773Z,8.88
2018-01-13T15:31:22.056Z,10.95
2018-01-13T15:33:50.356Z,7.28
2018-01-13T15:36:18.554Z,8.07
2018-01-13T15:38:46.738Z,12.68
2018-01-13T15:41:14.834Z,11.38
2018-01-13T15:43:43.127Z,11.05
2018-01-13T15:46:11.216Z,10.77
2018-01-13T15:48:39.429Z,11.68
2018-01-13T15:51:07.516Z,10.20
2018-01-13T15:53:35.715Z,10.60
2018-01-13T15:56:04.006Z,11.93
2018-01-13T15:58:32.295Z,14.50
2018-01-13T16:01:00.610Z,10.85
2018-01-13T16:03:28.893Z,13.48
2018-01-13T16:05:57.080Z,10.25
2018-01-13T16:08:25.393Z,12.55
2018-01-13T16:10:53.586Z,16.83
2018-01-13T16:13:21.666Z,18.55
2018-01-13T16:15:49.770Z,17.25
2018-01-13T16:18:17.957Z,26.35
2018-01-13T16:20:46.042Z,23.35
2018-01-13T16:23:14.238Z,18.27
2018-01-13T16:25:42.330Z,16.10
2018-01-13T16:28:11.558Z,27.60
2018-01-13T16:30:39.601Z,23.58
2018-01-13T16:33:07.827Z,19.95
2018-01-13T16:35:36.042Z,14.90
2018-01-13T16:38:04.336Z,13.82
2018-01-13T16:40:32.519Z,9.05
2018-01-13T16:43:00.615Z,10.27
2018-01-13T16:45:29.229Z,13.55
2018-01-13T16:47:57.616Z,11.90
2018-01-13T16:50:25.812Z,10.10
2018-01-13T16:52:54.018Z,15.15
2018-01-13T16:55:22.206Z,15.45
2018-01-13T16:57:50.402Z,14.87
2018-01-13T17:00:18.595Z,13.20
2018-01-13T17:02:46.788Z,16.77
2018-01-13T17:05:14.884Z,21.92
2018-01-13T17:07:43.066Z,17.58
2018-01-13T17:10:11.371Z,13.25
2018-01-13T17:12:39.275Z,17.87
2018-01-13T17:15:07.339Z,18.85
2018-01-13T17:17:35.643Z,17.17
2018-01-13T17:20:03.941Z,16.83
2018-01-13T17:22:32.136Z,8.90
2018-01-13T17:25:00.422Z,11.43
2018-01-13T17:27:28.740Z,9.25
2018-01-13T17:29:56.934Z,11.27
2018-01-13T17:32:25.122Z,9.98
2018-01-13T17:34:53.318Z,11.43
2018-01-13T17:37:21.613Z,11.70
2018-01-13T17:39:49.794Z,13.23
2018-01-13T17:42:17.894Z,11.20
2018-01-13T17:44:46.094Z,14.80
2018-01-13T17:47:15.110Z,9.70
2018-01-13T17:49:43.305Z,10.45
2018-01-13T17:52:11.584Z,8.50
2018-01-13T17:54:39.684Z,11.77
2018-01-13T17:57:07.685Z,12.23
2018-01-13T17:59:35.866Z,17.10
2018-01-13T18:02:03.965Z,14.40
2018-01-13T18:04:32.165Z,15.40
2018-01-13T18:07:00.348Z,12.90
2018-01-13T18:09:28.552Z,14.60
2018-01-13T18:11:56.529Z,9.10
2018-01-13T18:14:24.765Z,10.75
2018-01-13T18:16:52.928Z,13.57
2018-01-13T18:19:21.109Z,20.35
2018-01-13T18:21:49.309Z,11.77
2018-01-13T18:24:17.507Z,12.40
2018-01-13T18:26:45.710Z,11.50
2018-01-13T18:29:13.992Z,12.00
2018-01-13T18:31:42.188Z,11.95
2018-01-13T18:34:10.890Z,12.00
2018-01-13T18:36:39.090Z,12.57
2018-01-13T18:39:07.170Z,13.15
2018-01-13T18:41:35.283Z,12.95
2018-01-13T18:44:03.480Z,14.43
2018-01-13T18:46:31.889Z,17.00
2018-01-13T18:49:00.261Z,17.17
2018-01-13T18:51:28.366Z,15.65
2018-01-13T18:53:59.719Z,15.57
2018-01-13T18:56:27.825Z,26.55
2018-01-13T18:58:56.025Z,22.10
2018-01-13T19:01:24.100Z,22.60
2018-01-13T19:03:52.304Z,17.92
2018-01-13T19:06:20.395Z,16.90
2018-01-13T19:08:48.585Z,16.98
2018-01-13T19:11:16.699Z,15.02
2018-01-13T19:13:45.087Z,14.38
2018-01-13T19:16:13.085Z,13.05
2018-01-13T19:18:41.153Z,13.15
2018-01-13T19:21:09.248Z,11.05
2018-01-13T19:23:37.346Z,13.48
2018-01-13T19:26:05.527Z,13.40
2018-01-13T19:28:34.246Z,13.68
2018-01-13T19:31:02.327Z,13.70
2018-01-13T19:33:30.520Z,11.95
2018-01-13T19:35:58.726Z,12.80
2018-01-13T19:38:26.921Z,13.55
2018-01-13T19:40:55.122Z,13.25
2018-01-13T19:43:23.200Z,14.73
2018-01-13T19:45:52.606Z,14.57
2018-01-13T19:48:20.825Z,13.52
2018-01-13T19:50:49.004Z,14.93
2018-01-13T19:53:17.106Z,12.85
2018-01-13T19:55:45.235Z,12.25
2018-01-13T19:58:13.386Z,11.52
2018-01-13T20:00:41.686Z,12.80
2018-01-13T20:03:09.794Z,13.27
2018-01-13T20:05:37.866Z,15.23
2018-01-13T20:08:06.066Z,14.57
2018-01-13T20:10:34.266Z,11.80
2018-01-13T20:13:02.246Z,12.25
2018-01-13T20:15:33.819Z,13.27
2018-01-13T20:18:01.918Z,15.57
2018-01-13T20:20:30.100Z,15.20
2018-01-13T20:22:58.293Z,13.73
2018-01-13T20:25:26.399Z,12.75
2018-01-13T20:27:54.601Z,13.25
2018-01-13T20:30:22.891Z,11.52
2018-01-13T20:32:51.094Z,11.23
2018-01-13T20:35:19.275Z,14.98
2018-01-13T20:37:47.569Z,15.15
2018-01-13T20:40:15.876Z,12.60
2018-01-13T20:42:43.968Z,14.35
2018-01-13T20:45:12.151Z,15.07
2018-01-13T20:47:40.462Z,13.95
2018-01-13T20:50:08.642Z,14.23
2018-01-13T20:52:36.739Z,11.57
2018-01-13T20:55:05.042Z,12.98
2018-01-13T20:57:33.125Z,15.20
2018-01-13T21:00:01.322Z,13.13
2018-01-13T21:02:29.423Z,11.27
2018-01-13T21:04:57.602Z,15.43
2018-01-13T21:07:25.706Z,14.75
2018-01-13T21:09:53.909Z,12.75
2018-01-13T21:12:22.094Z,16.20
2018-01-13T21:14:50.386Z,15.70
2018-01-13T21:17:18.481Z,13.43
2018-01-13T21:19:46.559Z,14.05
2018-01-13T21:22:14.761Z,15.63
2018-01-13T21:24:43.058Z,12.65
2018-01-13T21:27:11.246Z,13.52
2018-01-13T21:29:39.443Z,15.35
2018-01-13T21:32:07.648Z,14.60
2018-01-13T21:34:35.841Z,15.10
2018-01-13T21:37:03.926Z,14.77
2018-01-13T21:39:32.115Z,13.13
2018-01-13T21:42:00.321Z,17.08
2018-01-13T21:44:28.415Z,14.68
2018-01-13T21:46:56.604Z,11.95
2018-01-13T21:49:24.898Z,12.40
2018-01-13T21:51:53.105Z,12.18
2018-01-13T21:54:21.499Z,15.15
2018-01-13T21:56:49.991Z,15.55
2018-01-13T21:59:18.202Z,10.60
2018-01-13T22:01:46.374Z,12.35
2018-01-13T22:04:14.688Z,13.40
2018-01-13T22:06:42.880Z,14.52
2018-01-13T22:09:11.060Z,14.10
2018-01-13T22:11:40.487Z,14.07
2018-01-13T22:14:08.484Z,16.17
2018-01-13T22:16:36.565Z,12.15
2018-01-13T22:19:04.666Z,11.48
2018-01-13T22:21:32.859Z,13.30
2018-01-13T22:24:00.959Z,11.85
2018-01-13T22:26:29.039Z,9.95
2018-01-13T22:28:57.140Z,14.15
2018-01-13T22:31:25.223Z,11.05
2018-01-13T22:33:53.322Z,11.18
2018-01-13T22:36:21.340Z,13.35
